Flight Track Log - Related Links

Times and Time Zones

All times are in EDT time to prevent confusion due to time zone crossing. See the N1271Z flight status page for this flight to view local times or setup timezone preferences in your user account.

Time Position Orientation Groundspeed Altitude Reporting Facility
EDT Latitude Longitude Course Direction KTS MPH feet Rate Location/Type
Fri 10:15:00 AM 40.9844 -81.7412 261° West  Level FlightAware Approximate
Fri 10:16:00 AM 40.9833 -81.7882 270° West  Level FlightAware Approximate
Fri 10:17:00 AM 40.9686 -81.8294 236° Southwest  Level FlightAware Approximate
Fri 10:18:00 AM 40.9667 -81.8757 270° West  Level FlightAware Approximate
Fri 10:19:00 AM 40.9658 -81.9227 259° West  Level FlightAware Approximate
Fri 10:20:00 AM 40.9592 -81.9689 259° West  Level FlightAware Approximate
Fri 10:21:00 AM 40.9526 -82.0152 259° West  Level FlightAware Approximate
Fri 10:22:00 AM 40.9460 -82.0614 259° West  Level FlightAware Approximate
Fri 10:23:00 AM 40.9394 -82.1077 259° West  Level FlightAware Approximate
Fri 10:24:00 AM 40.9327 -82.1539 259° West  Level FlightAware Approximate
Fri 10:25:00 AM 40.9257 -82.2000 259° West  Level FlightAware Approximate
Fri 10:26:00 AM 40.9187 -82.2461 259° West  Level FlightAware Approximate
Fri 10:27:00 AM 40.9117 -82.2923 259° West  Level FlightAware Approximate
Fri 10:28:00 AM 40.9046 -82.3384 259° West  Level FlightAware Approximate
Fri 10:29:00 AM 40.8975 -82.3845 259° West  Level FlightAware Approximate
Fri 10:30:00 AM 40.8904 -82.4305 258° West  Level FlightAware Approximate
Fri 10:31:00 AM 40.8833 -82.4766 258° West  Level FlightAware Approximate
Fri 10:32:00 AM 40.8761 -82.5227 258° West  Level FlightAware Approximate
Fri 10:33:00 AM 40.8689 -82.5687 258° West  Level FlightAware Approximate
Fri 10:34:00 AM 40.8538 -82.6105 238° Southwest  Level FlightAware Approximate
Fri 10:35:00 AM 40.8350 -82.6503 238° Southwest  Level FlightAware Approximate
Fri 10:36:00 AM 40.8161 -82.6902 238° Southwest  Level FlightAware Approximate
Fri 10:37:00 AM 40.7972 -82.7300 238° Southwest  Level FlightAware Approximate
Fri 10:38:00 AM 40.7784 -82.7697 238° Southwest  Level FlightAware Approximate
Fri 10:38:22 AM 40.8700 -82.5972 238° Southwest 128 147 8,100  Level Indianapolis Center
Fri 10:39:00 AM 40.7595 -82.8095 238° Southwest  Level FlightAware Approximate
Fri 10:39:24 AM 40.8506 -82.6333 235° Southwest 120 138 8,100  Level Indianapolis Center
Fri 10:40:00 AM 40.7405 -82.8492 238° Southwest  Level FlightAware Approximate
Fri 10:40:26 AM 40.8331 -82.6722 239° Southwest 120 138 8,100  Level Indianapolis Center
Fri 10:41:00 AM 40.7216 -82.8889 238° Southwest  Level FlightAware Approximate
Fri 10:41:28 AM 40.8114 -82.7161 237° Southwest 121 139 8,100  Level Indianapolis Center
Fri 10:42:00 AM 40.7027 -82.9286 238° Southwest  Level FlightAware Approximate
Fri 10:42:30 AM 40.7933 -82.7542 238° Southwest 122 140 8,100  Level Indianapolis Center
Fri 10:43:00 AM 40.6837 -82.9683 238° Southwest  Level FlightAware Approximate
Fri 10:43:32 AM 40.7756 -82.7933 239° Southwest 122 140 8,100  Level Indianapolis Center
Fri 10:44:34 AM 40.7572 -82.8308 237° Southwest 121 139 8,100  Level Indianapolis Center
Fri 10:45:36 AM 40.7386 -82.8692 237° Southwest 122 140 8,100  Level Indianapolis Center
Fri 10:46:38 AM 40.7200 -82.9078 238° Southwest 124 143 8,100  Level Indianapolis Center
Fri 10:47:39 AM 40.7008 -82.9461 237° Southwest 124 143 8,100  Level Indianapolis Center
Fri 10:48:41 AM 40.6828 -82.9856 239° Southwest 124 143 8,100  Level Indianapolis Center
Fri 10:49:43 AM 40.6614 -83.0322 239° Southwest 125 144 8,100  Level Indianapolis Center
Fri 10:50:45 AM 40.6422 -83.0700 236° Southwest 125 144 8,100  Level Indianapolis Center
Fri 10:51:47 AM 40.6225 -83.1089 236° Southwest 127 146 8,100  Level Indianapolis Center
Fri 10:52:48 AM 40.6039 -83.1494 239° Southwest 128 147 8,100 -49 Level Indianapolis Center
Fri 10:53:50 AM 40.5856 -83.1861 237° Southwest 127 146 8,000 -48 Descending Indianapolis Center
Fri 10:54:52 AM 40.5642 -83.2322 239° Southwest 126 145 8,000  Level Indianapolis Center
Fri 10:55:54 AM 40.5439 -83.2711 236° Southwest 127 146 8,000  Level Indianapolis Center
Fri 10:56:56 AM 40.5247 -83.3100 237° Southwest 126 145 8,000 48 Level Indianapolis Center
Fri 10:57:58 AM 40.5064 -83.3492 238° Southwest 125 144 8,100 49 Climbing Indianapolis Center
Fri 10:58:59 AM 40.4867 -83.3883 237° Southwest 126 145 8,100  Level Indianapolis Center
Fri 10:59:40 AM 40.4714 -83.4217 239° Southwest 125 144 8,100  Level Indianapolis Center
Fri 11:00:01 AM 40.4672 -83.4275 227° Southwest 127 146 8,100  Level Indianapolis Center
Fri 11:00:35 AM 40.4522 -83.4578 237° Southwest 129 148 8,100  Level Indianapolis Center
Fri 11:01:03 AM 40.4475 -83.4681 239° Southwest 129 148 8,100  Level Indianapolis Center
Fri 11:01:29 AM 40.4350 -83.4914 235° Southwest 127 146 8,100  Level Indianapolis Center
Fri 11:02:05 AM 40.4281 -83.5075 240° Southwest 129 148 8,100  Level Indianapolis Center
Fri 11:02:42 AM 40.4128 -83.5406 239° Southwest 128 147 8,100  Level Indianapolis Center
Fri 11:03:06 AM 40.4058 -83.5533 234° Southwest 127 146 8,100  Level Indianapolis Center
Fri 11:03:43 AM 40.3931 -83.5792 237° Southwest 128 147 8,100  Level Indianapolis Center
Fri 11:04:08 AM 40.3864 -83.5933 238° Southwest 128 147 8,100  Level Indianapolis Center
Fri 11:04:50 AM 40.3711 -83.6231 236° Southwest 129 148 8,100  Level Indianapolis Center
Fri 11:05:10 AM 40.3658 -83.6333 236° Southwest 131 151 8,100  Level Indianapolis Center
Fri 11:06:12 AM 40.3472 -83.6725 238° Southwest 127 146 8,100  Level Indianapolis Center
Fri 11:06:39 AM 40.3364 -83.6953 238° Southwest 128 147 8,100  Level Indianapolis Center
Fri 11:07:13 AM 40.3281 -83.7119 237° Southwest 127 146 8,100  Level Indianapolis Center
Fri 11:08:10 AM 40.3069 -83.7544 237° Southwest 128 147 8,100  Level Indianapolis Center
Fri 11:08:53 AM 40.2922 -83.7828 236° Southwest 127 146 8,100  Level Indianapolis Center
Fri 11:09:17 AM 40.2883 -83.7911 239° Southwest 128 147 8,100  Level Indianapolis Center
Fri 11:10:00 AM 40.2703 -83.8236 234° Southwest 128 147 8,100  Level Indianapolis Center
Fri 11:10:19 AM 40.2697 -83.8308 264° West 127 146 8,100  Level Indianapolis Center
Fri 11:11:01 AM 40.2506 -83.8650 234° Southwest 129 148 8,100  Level Indianapolis Center
Fri 11:11:21 AM 40.2489 -83.8708 249° West 130 150 8,100  Level Indianapolis Center
Fri 11:12:22 AM 40.2261 -83.9161 237° Southwest 128 147 8,100  Level Indianapolis Center
Fri 11:12:56 AM 40.2133 -83.9422 237° Southwest 130 150 8,100  Level Indianapolis Center
Fri 11:13:24 AM 40.2064 -83.9558 236° Southwest 129 148 8,100  Level Indianapolis Center
Fri 11:14:26 AM 40.1864 -83.9961 237° Southwest 130 150 8,100  Level Indianapolis Center
Fri 11:14:58 AM 40.1739 -84.0189 234° Southwest 129 148 8,100  Level Indianapolis Center
Fri 11:15:27 AM 40.1664 -84.0350 239° Southwest 129 148 8,100  Level Indianapolis Center
Fri 11:15:59 AM 40.1539 -84.0600 237° Southwest 128 147 8,100  Level Indianapolis Center
Fri 11:16:29 AM 40.1472 -84.0756 241° Southwest 129 148 8,100  Level Indianapolis Center
Fri 11:16:54 AM 40.1364 -84.0958 235° Southwest 130 150 8,100  Level Indianapolis Center
Fri 11:17:31 AM 40.1272 -84.1150 238° Southwest 129 148 8,100  Level Indianapolis Center
Fri 11:17:54 AM 40.1164 -84.1369 237° Southwest 129 148 8,100  Level Indianapolis Center
Fri 11:18:32 AM 40.1072 -84.1539 235° Southwest 129 148 8,100  Level Indianapolis Center
Fri 11:18:55 AM 40.0967 -84.1753 237° Southwest 130 150 8,100  Level Indianapolis Center
Fri 11:19:34 AM 40.0872 -84.1939 236° Southwest 129 148 8,100  Level Indianapolis Center
Fri 11:19:56 AM 40.0769 -84.2136 236° Southwest 129 148 8,100  Level Indianapolis Center
Fri 11:20:36 AM 40.0639 -84.2403 237° Southwest 130 150 8,100  Level Indianapolis Center
Fri 11:21:03 AM 40.0547 -84.2569 234° Southwest 131 151 8,100  Level Indianapolis Center
Fri 11:21:38 AM 40.0433 -84.2808 238° Southwest 131 151 8,100  Level Indianapolis Center
Fri 11:22:04 AM 40.0344 -84.3006 240° Southwest 133 153 8,100  Level Indianapolis Center
Fri 11:22:39 AM 40.0236 -84.3219 237° Southwest 132 152 8,100  Level Indianapolis Center
Fri 11:23:05 AM 40.0147 -84.3389 236° Southwest 133 153 8,100  Level Indianapolis Center
Fri 11:23:41 AM 40.0028 -84.3619 236° Southwest 133 153 8,100  Level Indianapolis Center
Fri 11:24:12 AM 39.9922 -84.3850 239° Southwest 136 157 8,100  Level Indianapolis Center
Fri 11:24:43 AM 39.9819 -84.4039 235° Southwest 135 155 8,100  Level Indianapolis Center
Fri 11:25:12 AM 39.9697 -84.4281 237° Southwest 135 155 8,100  Level Indianapolis Center
Fri 11:25:44 AM 39.9611 -84.4447 236° Southwest 135 155 8,100  Level Indianapolis Center
Fri 11:26:13 AM 39.9497 -84.4689 238° Southwest 135 155 8,100  Level Indianapolis Center
Fri 11:27:20 AM 39.9272 -84.5150 238° Southwest 138 159 8,100  Level Indianapolis Center
Fri 11:27:48 AM 39.9181 -84.5289 229° Southwest 138 159 8,100  Level Indianapolis Center
Fri 11:28:15 AM 39.9075 -84.5503 237° Southwest 137 158 8,100  Level Indianapolis Center
Fri 11:28:49 AM 39.8978 -84.5694 237° Southwest 135 155 8,100  Level Indianapolis Center
Fri 11:29:22 AM 39.8825 -84.5986 236° Southwest 135 155 8,100  Level Indianapolis Center
Fri 11:29:51 AM 39.8733 -84.6172 237° Southwest 135 155 8,100  Level Indianapolis Center
Fri 11:30:23 AM 39.8625 -84.6394 238° Southwest 137 158 8,100  Level Indianapolis Center
Fri 11:30:53 AM 39.8517 -84.6597 235° Southwest 138 159 8,100  Level Indianapolis Center
Fri 11:31:30 AM 39.8375 -84.6875 236° Southwest 140 161 8,100  Level Indianapolis Center
Fri 11:31:54 AM 39.8308 -84.7019 239° Southwest 138 159 8,100  Level Indianapolis Center
Fri 11:32:31 AM 39.8169 -84.7308 238° Southwest 139 160 8,100  Level Indianapolis Center
Fri 11:32:56 AM 39.8086 -84.7444 231° Southwest 140 161 8,100  Level Indianapolis Center
Fri 11:33:20 AM 39.7997 -84.7611 235° Southwest 140 161 8,100  Level Indianapolis Center
Fri 11:33:58 AM 39.7878 -84.7867 239° Southwest 138 159 8,100  Level Indianapolis Center
Fri 11:34:21 AM 39.7775 -84.8042 233° Southwest 139 160 8,100  Level Indianapolis Center
Fri 11:35:00 AM 39.7658 -84.8289 238° Southwest 139 160 8,100  Level Indianapolis Center
Fri 11:35:21 AM 39.7547 -84.8500 236° Southwest 139 160 8,100  Level Indianapolis Center
Fri 11:36:01 AM 39.7444 -84.8719 239° Southwest 140 161 8,100  Level Indianapolis Center
Fri 11:37:03 AM 39.7228 -84.9186 239° Southwest 139 160 8,100  Level Indianapolis Center
Fri 11:38:04 AM 39.7042 -84.9614 241° Southwest 137 158 8,100  Level Indianapolis Center
Fri 11:39:06 AM 39.6853 -85.0033 240° Southwest 136 157 8,100  Level Indianapolis Center
Fri 11:40:08 AM 39.6661 -85.0456 239° Southwest 137 158 8,100  Level Indianapolis Center
Fri 11:41:09 AM 39.6453 -85.0889 238° Southwest 140 161 8,100  Level Indianapolis Center
Fri 11:42:11 AM 39.6372 -85.1381 258° West 142 163 8,100 -195 Level Indianapolis Center
Fri 11:43:12 AM 39.6350 -85.2028 267° West 148 170 7,700 -488 Descending Indianapolis Center
Fri 11:44:14 AM 39.6322 -85.2603 266° West 157 181 7,100 -532 Descending Indianapolis Center
Fri 11:45:16 AM 39.6264 -85.3175 262° West 159 183 6,600 -585 Descending Indianapolis Center
Fri 11:46:17 AM 39.6219 -85.3739 264° West 159 183 5,900 -683 Descending Indianapolis Center
Fri 11:47:19 AM 39.6136 -85.4283 259° West 155 178 5,200 -634 Descending Indianapolis Center
Fri 11:48:20 AM 39.5889 -85.4725 234° Southwest 152 175 4,600 -634 Descending Indianapolis Center
Fri 11:49:22 AM 39.5572 -85.5097 222° Southwest 153 176 3,900 -677 Descending Indianapolis Center
Fri 11:50:24 AM 39.5225 -85.5558 226° Southwest 152 175 3,200 -439 Descending Indianapolis Center
Fri 11:51:25 AM 39.4961 -85.5928 227° Southwest 147 169 3,000 -98 Descending Indianapolis Center
Fri 11:52:27 AM 39.4750 -85.6239 229° Southwest 135 155 3,000 -49 Level Indianapolis Center
Fri 11:53:28 AM 39.4517 -85.6506 221° Southwest 122 140 2,900 49 Descending Indianapolis Center
Fri 11:54:30 AM 39.4281 -85.6792 223° Southwest 118 136 3,100 49 Climbing Indianapolis Center
Fri 11:55:31 AM 39.4047 -85.7097 225° Southwest 118 136 3,000  Descending Indianapolis Center
Fri 11:56:33 AM 39.3825 -85.7389 225° Southwest 117 135 3,100 49 Climbing Indianapolis Center
Fri 11:57:34 AM 39.3606 -85.7678 226° Southwest 115 132 3,100 -195 Level Indianapolis Center
Fri 11:58:36 AM 39.3381 -85.7972 225° Southwest 107 123 2,700 -439 Descending Indianapolis Center
Fri 11:59:37 AM 39.3208 -85.8186 224° Southwest 97 112 2,200 -488 Descending Indianapolis Center
Fri 12:00:39 PM 39.3058 -85.8406 229° Southwest 89 102 1,700 -341 Descending Indianapolis Center
Fri 12:01:40 PM 39.2917 -85.8597 226° Southwest 87 100 1,500 -207 Descending Indianapolis Center
Fri 12:03:33 PM 39.2833 -85.8833 245° Southwest 85 98 1,100 -212 Descending Indianapolis TRACON

Login

Don't have an account? Register now (free) for customized features, flight alerts, and more!